sensor_id;sensor_type;location;lat;lon;timestamp;temperature;humidity
52621;DHT22;38515;53.160;6.990;2023-10-31T00:01:45;11.20;99.90
52621;DHT22;38515;53.160;6.990;2023-10-31T00:04:11;11.20;99.90
52621;DHT22;38515;53.160;6.990;2023-10-31T00:06:37;11.20;99.90
52621;DHT22;38515;53.160;6.990;2023-10-31T00:09:03;11.20;99.90
52621;DHT22;38515;53.160;6.990;2023-10-31T00:11:29;11.10;99.90
52621;DHT22;38515;53.160;6.990;2023-10-31T00:13:55;11.20;99.90
52621;DHT22;38515;53.160;6.990;2023-10-31T00:16:21;11.10;99.90
52621;DHT22;38515;53.160;6.990;2023-10-31T00:18:46;11.10;99.90
52621;DHT22;38515;53.160;6.990;2023-10-31T00:21:12;11.10;99.90
52621;DHT22;38515;53.160;6.990;2023-10-31T00:23:48;11.10;99.90
52621;DHT22;38515;53.160;6.990;2023-10-31T00:26:15;11.00;99.90
52621;DHT22;38515;53.160;6.990;2023-10-31T00:28:41;11.00;99.90
52621;DHT22;38515;53.160;6.990;2023-10-31T00:31:07;11.00;99.90
52621;DHT22;38515;53.160;6.990;2023-10-31T00:33:34;10.90;99.90
52621;DHT22;38515;53.160;6.990;2023-10-31T00:36:01;10.90;99.90
52621;DHT22;38515;53.160;6.990;2023-10-31T00:38:27;11.00;99.90
52621;DHT22;38515;53.160;6.990;2023-10-31T00:40:53;10.80;99.90
52621;DHT22;38515;53.160;6.990;2023-10-31T00:43:19;11.00;99.90
52621;DHT22;38515;53.160;6.990;2023-10-31T00:45:45;10.90;99.90
52621;DHT22;38515;53.160;6.990;2023-10-31T00:48:10;11.00;99.90
52621;DHT22;38515;53.160;6.990;2023-10-31T00:50:36;10.90;99.90
52621;DHT22;38515;53.160;6.990;2023-10-31T00:53:02;10.90;99.90
52621;DHT22;38515;53.160;6.990;2023-10-31T00:55:28;10.80;99.90
52621;DHT22;38515;53.160;6.990;2023-10-31T00:57:54;10.80;99.90
52621;DHT22;38515;53.160;6.990;2023-10-31T01:00:20;10.90;99.90
52621;DHT22;38515;53.160;6.990;2023-10-31T01:02:46;10.90;99.90
52621;DHT22;38515;53.160;6.990;2023-10-31T01:05:12;10.90;99.90
52621;DHT22;38515;53.160;6.990;2023-10-31T01:07:37;10.90;99.90
52621;DHT22;38515;53.160;6.990;2023-10-31T01:10:04;10.70;99.90
52621;DHT22;38515;53.160;6.990;2023-10-31T01:12:30;10.70;99.90
52621;DHT22;38515;53.160;6.990;2023-10-31T01:14:56;10.70;99.90
52621;DHT22;38515;53.160;6.990;2023-10-31T01:17:22;10.80;99.90
52621;DHT22;38515;53.160;6.990;2023-10-31T01:19:48;10.80;99.90
52621;DHT22;38515;53.160;6.990;2023-10-31T01:22:14;10.70;99.90
52621;DHT22;38515;53.160;6.990;2023-10-31T01:24:40;10.70;99.90
52621;DHT22;38515;53.160;6.990;2023-10-31T01:27:06;10.70;99.90
52621;DHT22;38515;53.160;6.990;2023-10-31T01:29:32;10.40;99.90
52621;DHT22;38515;53.160;6.990;2023-10-31T01:31:58;10.30;99.90
52621;DHT22;38515;53.160;6.990;2023-10-31T01:34:23;10.40;99.90
52621;DHT22;38515;53.160;6.990;2023-10-31T01:36:49;10.40;99.90
52621;DHT22;38515;53.160;6.990;2023-10-31T01:39:15;10.40;99.90
52621;DHT22;38515;53.160;6.990;2023-10-31T01:41:42;10.40;99.90
52621;DHT22;38515;53.160;6.990;2023-10-31T01:44:09;10.40;99.90
52621;DHT22;38515;53.160;6.990;2023-10-31T01:46:35;10.40;99.90
52621;DHT22;38515;53.160;6.990;2023-10-31T01:49:01;10.30;99.90
52621;DHT22;38515;53.160;6.990;2023-10-31T01:51:28;10.30;99.90
52621;DHT22;38515;53.160;6.990;2023-10-31T01:53:54;10.40;99.90
52621;DHT22;38515;53.160;6.990;2023-10-31T01:56:21;10.30;99.90
52621;DHT22;38515;53.160;6.990;2023-10-31T01:58:48;10.40;99.90
52621;DHT22;38515;53.160;6.990;2023-10-31T02:01:15;10.00;99.90
52621;DHT22;38515;53.160;6.990;2023-10-31T02:03:41;10.50;99.90
52621;DHT22;38515;53.160;6.990;2023-10-31T02:06:08;10.20;99.90
52621;DHT22;38515;53.160;6.990;2023-10-31T02:08:34;10.50;99.90
52621;DHT22;38515;53.160;6.990;2023-10-31T02:11:00;10.10;99.90
52621;DHT22;38515;53.160;6.990;2023-10-31T02:13:26;10.10;99.90
52621;DHT22;38515;53.160;6.990;2023-10-31T02:15:51;10.10;99.90
52621;DHT22;38515;53.160;6.990;2023-10-31T02:18:17;10.20;99.90
52621;DHT22;38515;53.160;6.990;2023-10-31T02:20:44;9.90;99.90
52621;DHT22;38515;53.160;6.990;2023-10-31T02:23:10;10.20;99.90
52621;DHT22;38515;53.160;6.990;2023-10-31T02:25:36;10.00;99.90
52621;DHT22;38515;53.160;6.990;2023-10-31T02:28:02;9.90;99.90
52621;DHT22;38515;53.160;6.990;2023-10-31T02:30:28;9.90;99.90
52621;DHT22;38515;53.160;6.990;2023-10-31T02:32:54;10.00;99.90
52621;DHT22;38515;53.160;6.990;2023-10-31T02:35:20;9.90;99.90
52621;DHT22;38515;53.160;6.990;2023-10-31T02:37:46;9.90;99.90
52621;DHT22;38515;53.160;6.990;2023-10-31T02:40:13;10.20;99.90
52621;DHT22;38515;53.160;6.990;2023-10-31T02:42:38;9.80;99.90
52621;DHT22;38515;53.160;6.990;2023-10-31T02:45:05;10.10;99.90
52621;DHT22;38515;53.160;6.990;2023-10-31T02:47:31;10.30;99.90
52621;DHT22;38515;53.160;6.990;2023-10-31T02:49:57;9.90;99.90
52621;DHT22;38515;53.160;6.990;2023-10-31T02:52:22;10.00;99.90
52621;DHT22;38515;53.160;6.990;2023-10-31T02:54:48;9.80;99.90
52621;DHT22;38515;53.160;6.990;2023-10-31T02:57:15;10.20;99.90
52621;DHT22;38515;53.160;6.990;2023-10-31T02:59:42;10.20;99.90
52621;DHT22;38515;53.160;6.990;2023-10-31T03:02:07;9.90;99.90
52621;DHT22;38515;53.160;6.990;2023-10-31T03:04:33;10.20;99.90
52621;DHT22;38515;53.160;6.990;2023-10-31T03:06:59;10.10;99.90
52621;DHT22;38515;53.160;6.990;2023-10-31T03:09:25;10.00;99.90
52621;DHT22;38515;53.160;6.990;2023-10-31T03:11:51;10.00;99.90
52621;DHT22;38515;53.160;6.990;2023-10-31T03:14:17;10.10;99.90
52621;DHT22;38515;53.160;6.990;2023-10-31T03:16:42;10.10;99.90
52621;DHT22;38515;53.160;6.990;2023-10-31T03:19:08;10.00;99.90
52621;DHT22;38515;53.160;6.990;2023-10-31T03:21:34;9.80;99.90
52621;DHT22;38515;53.160;6.990;2023-10-31T03:24:00;9.70;99.90
52621;DHT22;38515;53.160;6.990;2023-10-31T03:26:26;9.80;99.90
52621;DHT22;38515;53.160;6.990;2023-10-31T03:28:52;10.00;99.90
52621;DHT22;38515;53.160;6.990;2023-10-31T03:31:23;9.90;99.90
52621;DHT22;38515;53.160;6.990;2023-10-31T03:33:49;9.90;99.90
52621;DHT22;38515;53.160;6.990;2023-10-31T03:36:15;9.80;99.90
52621;DHT22;38515;53.160;6.990;2023-10-31T03:38:41;9.80;99.90
52621;DHT22;38515;53.160;6.990;2023-10-31T03:41:07;10.00;99.90
52621;DHT22;38515;53.160;6.990;2023-10-31T03:43:33;9.60;99.90
52621;DHT22;38515;53.160;6.990;2023-10-31T03:45:59;9.70;99.90
52621;DHT22;38515;53.160;6.990;2023-10-31T03:48:25;9.90;99.90
52621;DHT22;38515;53.160;6.990;2023-10-31T03:50:51;10.00;99.90
52621;DHT22;38515;53.160;6.990;2023-10-31T03:53:17;9.80;99.90
52621;DHT22;38515;53.160;6.990;2023-10-31T03:55:43;10.10;99.90
52621;DHT22;38515;53.160;6.990;2023-10-31T03:58:08;9.90;99.90
52621;DHT22;38515;53.160;6.990;2023-10-31T04:00:34;9.90;99.90
52621;DHT22;38515;53.160;6.990;2023-10-31T04:03:00;10.10;99.90
52621;DHT22;38515;53.160;6.990;2023-10-31T04:05:26;10.00;99.90
52621;DHT22;38515;53.160;6.990;2023-10-31T04:07:52;10.20;99.90
52621;DHT22;38515;53.160;6.990;2023-10-31T04:10:18;9.90;99.90
52621;DHT22;38515;53.160;6.990;2023-10-31T04:12:44;10.30;99.90
52621;DHT22;38515;53.160;6.990;2023-10-31T04:15:10;9.90;99.90
52621;DHT22;38515;53.160;6.990;2023-10-31T04:17:37;9.90;99.90
52621;DHT22;38515;53.160;6.990;2023-10-31T04:20:03;9.80;99.90
52621;DHT22;38515;53.160;6.990;2023-10-31T04:22:29;10.20;99.90
52621;DHT22;38515;53.160;6.990;2023-10-31T04:24:55;10.20;99.90
52621;DHT22;38515;53.160;6.990;2023-10-31T04:27:21;9.90;99.90
52621;DHT22;38515;53.160;6.990;2023-10-31T04:29:47;10.00;99.90
52621;DHT22;38515;53.160;6.990;2023-10-31T04:32:13;9.90;99.90
52621;DHT22;38515;53.160;6.990;2023-10-31T04:34:39;9.70;99.90
52621;DHT22;38515;53.160;6.990;2023-10-31T04:37:05;9.70;99.90
52621;DHT22;38515;53.160;6.990;2023-10-31T04:39:31;9.90;99.90
52621;DHT22;38515;53.160;6.990;2023-10-31T04:41:57;10.00;99.90
52621;DHT22;38515;53.160;6.990;2023-10-31T04:44:22;10.10;99.90
52621;DHT22;38515;53.160;6.990;2023-10-31T04:46:48;10.10;99.90
52621;DHT22;38515;53.160;6.990;2023-10-31T04:49:14;9.80;99.90
52621;DHT22;38515;53.160;6.990;2023-10-31T04:51:43;10.20;99.90
52621;DHT22;38515;53.160;6.990;2023-10-31T04:54:09;10.20;99.90
52621;DHT22;38515;53.160;6.990;2023-10-31T04:56:35;10.20;99.90
52621;DHT22;38515;53.160;6.990;2023-10-31T04:59:01;10.20;99.90
52621;DHT22;38515;53.160;6.990;2023-10-31T05:01:27;9.80;99.90
52621;DHT22;38515;53.160;6.990;2023-10-31T05:03:53;10.10;99.90
52621;DHT22;38515;53.160;6.990;2023-10-31T05:06:20;10.30;99.90
52621;DHT22;38515;53.160;6.990;2023-10-31T05:08:46;10.10;99.90
52621;DHT22;38515;53.160;6.990;2023-10-31T05:11:12;10.20;99.90
52621;DHT22;38515;53.160;6.990;2023-10-31T05:13:39;9.90;99.90
52621;DHT22;38515;53.160;6.990;2023-10-31T05:16:05;10.00;99.90
52621;DHT22;38515;53.160;6.990;2023-10-31T05:18:31;10.10;99.90
52621;DHT22;38515;53.160;6.990;2023-10-31T05:20:57;10.20;99.90
52621;DHT22;38515;53.160;6.990;2023-10-31T05:23:22;9.80;99.90
52621;DHT22;38515;53.160;6.990;2023-10-31T05:25:48;9.90;99.90
52621;DHT22;38515;53.160;6.990;2023-10-31T05:28:14;9.90;99.90
52621;DHT22;38515;53.160;6.990;2023-10-31T05:30:40;9.90;99.90
52621;DHT22;38515;53.160;6.990;2023-10-31T05:33:06;10.00;99.90
52621;DHT22;38515;53.160;6.990;2023-10-31T05:35:33;9.90;99.90
52621;DHT22;38515;53.160;6.990;2023-10-31T05:37:59;9.80;99.90
52621;DHT22;38515;53.160;6.990;2023-10-31T05:40:25;9.80;99.90
52621;DHT22;38515;53.160;6.990;2023-10-31T05:42:52;10.10;99.90
52621;DHT22;38515;53.160;6.990;2023-10-31T05:45:18;10.00;99.90
52621;DHT22;38515;53.160;6.990;2023-10-31T05:47:44;10.20;99.90
52621;DHT22;38515;53.160;6.990;2023-10-31T05:50:10;9.90;99.90
52621;DHT22;38515;53.160;6.990;2023-10-31T05:52:36;9.80;99.90
52621;DHT22;38515;53.160;6.990;2023-10-31T05:55:02;10.20;99.90
52621;DHT22;38515;53.160;6.990;2023-10-31T05:57:28;9.80;99.90
52621;DHT22;38515;53.160;6.990;2023-10-31T05:59:54;10.30;99.90
52621;DHT22;38515;53.160;6.990;2023-10-31T06:02:20;9.90;99.90
52621;DHT22;38515;53.160;6.990;2023-10-31T06:04:45;9.80;99.90
52621;DHT22;38515;53.160;6.990;2023-10-31T06:07:11;9.90;99.90
52621;DHT22;38515;53.160;6.990;2023-10-31T06:09:37;10.30;99.90
52621;DHT22;38515;53.160;6.990;2023-10-31T06:12:03;10.10;99.90
52621;DHT22;38515;53.160;6.990;2023-10-31T06:14:30;10.30;99.90
52621;DHT22;38515;53.160;6.990;2023-10-31T06:16:56;10.00;99.90
52621;DHT22;38515;53.160;6.990;2023-10-31T06:19:24;10.00;99.90
52621;DHT22;38515;53.160;6.990;2023-10-31T06:21:50;10.30;99.90
52621;DHT22;38515;53.160;6.990;2023-10-31T06:24:16;10.20;99.90
52621;DHT22;38515;53.160;6.990;2023-10-31T06:26:42;10.20;99.90
52621;DHT22;38515;53.160;6.990;2023-10-31T06:29:08;9.90;99.90
52621;DHT22;38515;53.160;6.990;2023-10-31T06:31:33;10.30;99.90
52621;DHT22;38515;53.160;6.990;2023-10-31T06:33:59;10.00;99.90
52621;DHT22;38515;53.160;6.990;2023-10-31T06:36:25;10.30;99.90
52621;DHT22;38515;53.160;6.990;2023-10-31T06:38:51;10.30;99.90
52621;DHT22;38515;53.160;6.990;2023-10-31T06:41:16;10.30;99.90
52621;DHT22;38515;53.160;6.990;2023-10-31T06:43:42;10.30;99.90
52621;DHT22;38515;53.160;6.990;2023-10-31T06:46:08;10.10;99.90
52621;DHT22;38515;53.160;6.990;2023-10-31T06:48:34;10.40;99.90
52621;DHT22;38515;53.160;6.990;2023-10-31T06:51:00;10.30;99.90
52621;DHT22;38515;53.160;6.990;2023-10-31T06:53:26;10.40;99.90
52621;DHT22;38515;53.160;6.990;2023-10-31T06:55:52;10.30;99.90
52621;DHT22;38515;53.160;6.990;2023-10-31T06:58:17;10.40;99.90
52621;DHT22;38515;53.160;6.990;2023-10-31T07:00:43;10.30;99.90
52621;DHT22;38515;53.160;6.990;2023-10-31T07:03:11;10.40;99.90
52621;DHT22;38515;53.160;6.990;2023-10-31T07:05:41;10.40;99.90
52621;DHT22;38515;53.160;6.990;2023-10-31T07:08:07;10.10;99.90
52621;DHT22;38515;53.160;6.990;2023-10-31T07:10:33;10.10;99.90
52621;DHT22;38515;53.160;6.990;2023-10-31T07:13:00;10.20;99.90
52621;DHT22;38515;53.160;6.990;2023-10-31T07:15:26;10.30;99.90
52621;DHT22;38515;53.160;6.990;2023-10-31T07:17:52;10.50;99.90
52621;DHT22;38515;53.160;6.990;2023-10-31T07:20:17;10.10;99.90
52621;DHT22;38515;53.160;6.990;2023-10-31T07:22:43;10.10;99.90
52621;DHT22;38515;53.160;6.990;2023-10-31T07:25:09;10.20;99.90
52621;DHT22;38515;53.160;6.990;2023-10-31T07:27:35;10.20;99.90
52621;DHT22;38515;53.160;6.990;2023-10-31T07:30:05;10.40;99.90
52621;DHT22;38515;53.160;6.990;2023-10-31T07:32:31;10.50;99.90
52621;DHT22;38515;53.160;6.990;2023-10-31T07:34:58;10.50;99.90
52621;DHT22;38515;53.160;6.990;2023-10-31T07:37:23;10.20;99.90
52621;DHT22;38515;53.160;6.990;2023-10-31T07:39:49;10.40;99.90
52621;DHT22;38515;53.160;6.990;2023-10-31T07:42:16;10.50;99.90
52621;DHT22;38515;53.160;6.990;2023-10-31T07:44:42;10.30;99.90
52621;DHT22;38515;53.160;6.990;2023-10-31T07:47:10;10.20;99.90
52621;DHT22;38515;53.160;6.990;2023-10-31T07:49:36;10.20;99.90
52621;DHT22;38515;53.160;6.990;2023-10-31T07:52:05;10.40;99.90
52621;DHT22;38515;53.160;6.990;2023-10-31T07:54:31;10.60;99.90
52621;DHT22;38515;53.160;6.990;2023-10-31T07:56:57;10.20;99.90
52621;DHT22;38515;53.160;6.990;2023-10-31T07:59:23;10.40;99.90
52621;DHT22;38515;53.160;6.990;2023-10-31T08:01:49;10.30;99.90
52621;DHT22;38515;53.160;6.990;2023-10-31T08:04:16;10.20;99.90
52621;DHT22;38515;53.160;6.990;2023-10-31T08:06:43;10.70;99.90
52621;DHT22;38515;53.160;6.990;2023-10-31T08:09:08;10.60;99.90
52621;DHT22;38515;53.160;6.990;2023-10-31T08:11:34;10.30;99.90
52621;DHT22;38515;53.160;6.990;2023-10-31T08:14:01;10.70;99.90
52621;DHT22;38515;53.160;6.990;2023-10-31T08:16:27;10.40;99.90
52621;DHT22;38515;53.160;6.990;2023-10-31T08:18:53;10.40;99.90
52621;DHT22;38515;53.160;6.990;2023-10-31T08:21:19;10.50;99.90
52621;DHT22;38515;53.160;6.990;2023-10-31T08:23:45;10.80;99.90
52621;DHT22;38515;53.160;6.990;2023-10-31T08:26:12;10.90;99.90
52621;DHT22;38515;53.160;6.990;2023-10-31T08:28:38;10.90;99.90
52621;DHT22;38515;53.160;6.990;2023-10-31T08:31:04;10.80;99.90
52621;DHT22;38515;53.160;6.990;2023-10-31T08:33:30;10.60;99.90
52621;DHT22;38515;53.160;6.990;2023-10-31T08:35:56;10.90;99.90
52621;DHT22;38515;53.160;6.990;2023-10-31T08:38:22;10.70;99.90
52621;DHT22;38515;53.160;6.990;2023-10-31T08:40:47;10.90;99.90
52621;DHT22;38515;53.160;6.990;2023-10-31T08:43:14;11.00;99.90
52621;DHT22;38515;53.160;6.990;2023-10-31T08:45:40;10.70;99.90
52621;DHT22;38515;53.160;6.990;2023-10-31T08:48:06;11.10;99.90
52621;DHT22;38515;53.160;6.990;2023-10-31T08:50:32;11.20;99.90
52621;DHT22;38515;53.160;6.990;2023-10-31T08:52:58;11.00;99.90
52621;DHT22;38515;53.160;6.990;2023-10-31T08:55:24;11.20;99.90
52621;DHT22;38515;53.160;6.990;2023-10-31T08:57:49;11.30;99.90
52621;DHT22;38515;53.160;6.990;2023-10-31T09:00:19;11.00;99.90
52621;DHT22;38515;53.160;6.990;2023-10-31T09:02:45;11.30;99.90
52621;DHT22;38515;53.160;6.990;2023-10-31T09:05:11;11.20;99.90
52621;DHT22;38515;53.160;6.990;2023-10-31T09:07:37;11.30;99.90
52621;DHT22;38515;53.160;6.990;2023-10-31T09:10:03;11.00;99.90
52621;DHT22;38515;53.160;6.990;2023-10-31T09:12:30;11.10;99.90
52621;DHT22;38515;53.160;6.990;2023-10-31T09:14:56;11.00;99.90
52621;DHT22;38515;53.160;6.990;2023-10-31T09:17:22;11.30;99.90
52621;DHT22;38515;53.160;6.990;2023-10-31T09:19:48;11.40;99.90
52621;DHT22;38515;53.160;6.990;2023-10-31T09:22:14;11.20;99.90
52621;DHT22;38515;53.160;6.990;2023-10-31T09:24:39;11.40;99.90
52621;DHT22;38515;53.160;6.990;2023-10-31T09:27:06;11.30;99.90
52621;DHT22;38515;53.160;6.990;2023-10-31T09:29:32;11.50;99.90
52621;DHT22;38515;53.160;6.990;2023-10-31T09:31:58;11.50;99.90
52621;DHT22;38515;53.160;6.990;2023-10-31T09:34:24;11.50;99.90
52621;DHT22;38515;53.160;6.990;2023-10-31T09:36:50;11.30;99.90
52621;DHT22;38515;53.160;6.990;2023-10-31T09:39:18;11.50;99.90
52621;DHT22;38515;53.160;6.990;2023-10-31T09:41:44;11.30;99.90
52621;DHT22;38515;53.160;6.990;2023-10-31T09:44:10;11.30;99.90
52621;DHT22;38515;53.160;6.990;2023-10-31T09:46:40;11.20;99.90
52621;DHT22;38515;53.160;6.990;2023-10-31T09:49:07;11.20;99.90
52621;DHT22;38515;53.160;6.990;2023-10-31T09:51:33;11.00;99.90
52621;DHT22;38515;53.160;6.990;2023-10-31T09:54:02;11.00;99.90
52621;DHT22;38515;53.160;6.990;2023-10-31T09:56:29;10.80;99.90
52621;DHT22;38515;53.160;6.990;2023-10-31T09:59:04;10.70;99.90
52621;DHT22;38515;53.160;6.990;2023-10-31T10:01:30;10.70;99.90
52621;DHT22;38515;53.160;6.990;2023-10-31T10:03:56;10.70;99.90
52621;DHT22;38515;53.160;6.990;2023-10-31T10:06:22;10.60;99.90
52621;DHT22;38515;53.160;6.990;2023-10-31T10:08:49;10.70;99.90
52621;DHT22;38515;53.160;6.990;2023-10-31T10:11:16;10.70;99.90
52621;DHT22;38515;53.160;6.990;2023-10-31T10:13:41;10.60;99.90
52621;DHT22;38515;53.160;6.990;2023-10-31T10:16:09;10.60;99.90
52621;DHT22;38515;53.160;6.990;2023-10-31T10:18:36;10.60;99.90
52621;DHT22;38515;53.160;6.990;2023-10-31T10:21:06;10.60;99.90
52621;DHT22;38515;53.160;6.990;2023-10-31T10:23:32;10.80;99.90
52621;DHT22;38515;53.160;6.990;2023-10-31T10:25:59;10.90;99.90
52621;DHT22;38515;53.160;6.990;2023-10-31T10:28:27;10.90;99.90
52621;DHT22;38515;53.160;6.990;2023-10-31T10:30:55;10.90;99.90
52621;DHT22;38515;53.160;6.990;2023-10-31T10:33:22;10.80;99.90
52621;DHT22;38515;53.160;6.990;2023-10-31T10:35:48;10.90;99.90
52621;DHT22;38515;53.160;6.990;2023-10-31T10:38:16;11.00;99.90
52621;DHT22;38515;53.160;6.990;2023-10-31T10:40:47;11.10;99.90
52621;DHT22;38515;53.160;6.990;2023-10-31T10:45:43;11.00;99.90
52621;DHT22;38515;53.160;6.990;2023-10-31T10:48:40;11.00;99.90
52621;DHT22;38515;53.160;6.990;2023-10-31T10:51:18;11.00;99.90
52621;DHT22;38515;53.160;6.990;2023-10-31T10:53:54;11.00;99.90
52621;DHT22;38515;53.160;6.990;2023-10-31T10:56:28;11.00;99.90
52621;DHT22;38515;53.160;6.990;2023-10-31T10:59:10;10.80;99.90
52621;DHT22;38515;53.160;6.990;2023-10-31T11:01:38;10.80;99.90
52621;DHT22;38515;53.160;6.990;2023-10-31T11:04:05;10.90;99.90
52621;DHT22;38515;53.160;6.990;2023-10-31T11:06:39;10.90;99.90
52621;DHT22;38515;53.160;6.990;2023-10-31T11:09:09;10.90;99.90
52621;DHT22;38515;53.160;6.990;2023-10-31T11:11:37;10.90;99.90
52621;DHT22;38515;53.160;6.990;2023-10-31T11:25:09;11.00;99.90
52621;DHT22;38515;53.160;6.990;2023-10-31T11:39:17;11.30;99.90
52621;DHT22;38515;53.160;6.990;2023-10-31T11:41:50;11.30;99.90
52621;DHT22;38515;53.160;6.990;2023-10-31T11:47:57;11.30;99.90
52621;DHT22;38515;53.160;6.990;2023-10-31T11:50:23;11.30;99.90
52621;DHT22;38515;53.160;6.990;2023-10-31T11:53:21;11.30;99.90
52621;DHT22;38515;53.160;6.990;2023-10-31T11:55:48;11.30;99.90
52621;DHT22;38515;53.160;6.990;2023-10-31T12:00:41;11.60;99.90
52621;DHT22;38515;53.160;6.990;2023-10-31T12:03:07;11.50;99.90
52621;DHT22;38515;53.160;6.990;2023-10-31T12:05:33;11.50;99.90
52621;DHT22;38515;53.160;6.990;2023-10-31T12:07:59;11.40;99.90
52621;DHT22;38515;53.160;6.990;2023-10-31T12:10:27;11.40;99.90
52621;DHT22;38515;53.160;6.990;2023-10-31T12:12:56;11.30;99.90
52621;DHT22;38515;53.160;6.990;2023-10-31T12:15:22;11.40;99.90
52621;DHT22;38515;53.160;6.990;2023-10-31T12:17:48;11.40;99.90
52621;DHT22;38515;53.160;6.990;2023-10-31T12:20:15;11.40;99.90
52621;DHT22;38515;53.160;6.990;2023-10-31T12:22:44;11.40;99.90
52621;DHT22;38515;53.160;6.990;2023-10-31T12:25:11;11.40;99.90
52621;DHT22;38515;53.160;6.990;2023-10-31T12:27:47;11.40;99.90
52621;DHT22;38515;53.160;6.990;2023-10-31T12:30:18;11.40;99.90
52621;DHT22;38515;53.160;6.990;2023-10-31T12:32:45;11.30;99.90
52621;DHT22;38515;53.160;6.990;2023-10-31T12:35:19;11.20;99.90
52621;DHT22;38515;53.160;6.990;2023-10-31T12:37:47;11.20;99.90
52621;DHT22;38515;53.160;6.990;2023-10-31T12:40:18;11.10;96.50
52621;DHT22;38515;53.160;6.990;2023-10-31T12:42:45;11.10;91.30
52621;DHT22;38515;53.160;6.990;2023-10-31T12:45:12;11.10;77.60
52621;DHT22;38515;53.160;6.990;2023-10-31T12:47:38;11.10;70.60
52621;DHT22;38515;53.160;6.990;2023-10-31T12:50:15;11.00;69.30
52621;DHT22;38515;53.160;6.990;2023-10-31T12:52:47;11.10;71.40
52621;DHT22;38515;53.160;6.990;2023-10-31T12:55:15;11.10;63.60
52621;DHT22;38515;53.160;6.990;2023-10-31T12:57:41;11.10;64.20
52621;DHT22;38515;53.160;6.990;2023-10-31T13:00:07;11.20;60.70
52621;DHT22;38515;53.160;6.990;2023-10-31T13:02:36;11.20;55.30
52621;DHT22;38515;53.160;6.990;2023-10-31T13:05:10;11.20;48.30
52621;DHT22;38515;53.160;6.990;2023-10-31T13:07:36;11.20;42.20
52621;DHT22;38515;53.160;6.990;2023-10-31T13:10:02;11.10;33.90
52621;DHT22;38515;53.160;6.990;2023-10-31T13:12:30;11.10;21.70
52621;DHT22;38515;53.160;6.990;2023-10-31T13:14:56;11.10;15.50
52621;DHT22;38515;53.160;6.990;2023-10-31T13:17:22;11.10;6.00
52621;DHT22;38515;53.160;6.990;2023-10-31T13:19:47;11.10;1.00
52621;DHT22;38515;53.160;6.990;2023-10-31T13:22:13;11.10;1.00
52621;DHT22;38515;53.160;6.990;2023-10-31T13:24:39;11.00;1.00
52621;DHT22;38515;53.160;6.990;2023-10-31T13:27:09;11.10;1.00
52621;DHT22;38515;53.160;6.990;2023-10-31T13:29:40;11.00;1.00
52621;DHT22;38515;53.160;6.990;2023-10-31T13:32:06;11.10;1.00
52621;DHT22;38515;53.160;6.990;2023-10-31T13:34:32;11.10;1.00
52621;DHT22;38515;53.160;6.990;2023-10-31T13:36:58;11.00;1.00
52621;DHT22;38515;53.160;6.990;2023-10-31T13:39:24;11.00;1.00
52621;DHT22;38515;53.160;6.990;2023-10-31T13:41:50;10.90;1.00
52621;DHT22;38515;53.160;6.990;2023-10-31T13:44:16;10.90;1.00
52621;DHT22;38515;53.160;6.990;2023-10-31T13:46:42;10.90;1.00
52621;DHT22;38515;53.160;6.990;2023-10-31T13:49:08;10.90;1.00
52621;DHT22;38515;53.160;6.990;2023-10-31T13:51:34;10.80;1.00
52621;DHT22;38515;53.160;6.990;2023-10-31T13:54:01;10.80;1.00
52621;DHT22;38515;53.160;6.990;2023-10-31T13:56:28;10.80;1.00
52621;DHT22;38515;53.160;6.990;2023-10-31T13:58:53;10.70;1.00
52621;DHT22;38515;53.160;6.990;2023-10-31T14:01:19;10.70;1.00
52621;DHT22;38515;53.160;6.990;2023-10-31T14:03:50;10.70;1.00
52621;DHT22;38515;53.160;6.990;2023-10-31T14:06:16;10.70;1.00
52621;DHT22;38515;53.160;6.990;2023-10-31T14:08:43;10.70;1.00
52621;DHT22;38515;53.160;6.990;2023-10-31T14:11:09;10.70;1.00
52621;DHT22;38515;53.160;6.990;2023-10-31T14:13:38;10.70;1.00
52621;DHT22;38515;53.160;6.990;2023-10-31T14:16:04;10.60;1.00
52621;DHT22;38515;53.160;6.990;2023-10-31T14:18:30;10.60;1.00
52621;DHT22;38515;53.160;6.990;2023-10-31T14:20:56;10.50;1.00
52621;DHT22;38515;53.160;6.990;2023-10-31T14:23:22;10.40;1.00
52621;DHT22;38515;53.160;6.990;2023-10-31T14:25:50;10.30;1.00
52621;DHT22;38515;53.160;6.990;2023-10-31T14:28:34;10.30;1.00
52621;DHT22;38515;53.160;6.990;2023-10-31T14:31:00;10.20;1.00
52621;DHT22;38515;53.160;6.990;2023-10-31T14:33:26;10.20;1.00
52621;DHT22;38515;53.160;6.990;2023-10-31T14:35:52;10.20;1.00
52621;DHT22;38515;53.160;6.990;2023-10-31T14:38:18;10.20;1.00
52621;DHT22;38515;53.160;6.990;2023-10-31T14:40:43;10.20;1.00
52621;DHT22;38515;53.160;6.990;2023-10-31T14:43:10;10.20;1.00
52621;DHT22;38515;53.160;6.990;2023-10-31T14:45:36;10.20;1.00
52621;DHT22;38515;53.160;6.990;2023-10-31T14:48:02;10.20;1.00
52621;DHT22;38515;53.160;6.990;2023-10-31T14:50:29;10.20;1.50
52621;DHT22;38515;53.160;6.990;2023-10-31T14:52:54;10.20;2.80
52621;DHT22;38515;53.160;6.990;2023-10-31T14:55:20;10.20;6.40
52621;DHT22;38515;53.160;6.990;2023-10-31T14:57:46;10.20;9.80
52621;DHT22;38515;53.160;6.990;2023-10-31T15:00:12;10.20;10.70
52621;DHT22;38515;53.160;6.990;2023-10-31T15:02:39;10.20;14.70
52621;DHT22;38515;53.160;6.990;2023-10-31T15:05:05;10.20;17.90
52621;DHT22;38515;53.160;6.990;2023-10-31T15:07:31;10.20;20.20
52621;DHT22;38515;53.160;6.990;2023-10-31T15:09:57;10.10;15.00
52621;DHT22;38515;53.160;6.990;2023-10-31T15:12:26;10.20;21.00
52621;DHT22;38515;53.160;6.990;2023-10-31T15:14:52;10.20;29.30
52621;DHT22;38515;53.160;6.990;2023-10-31T15:17:18;10.20;37.00
52621;DHT22;38515;53.160;6.990;2023-10-31T15:19:43;10.20;43.30
52621;DHT22;38515;53.160;6.990;2023-10-31T15:22:10;10.20;46.30
52621;DHT22;38515;53.160;6.990;2023-10-31T15:24:36;10.20;50.40
52621;DHT22;38515;53.160;6.990;2023-10-31T15:27:03;10.20;55.40
52621;DHT22;38515;53.160;6.990;2023-10-31T15:29:29;10.20;61.60
52621;DHT22;38515;53.160;6.990;2023-10-31T15:31:55;10.20;63.80
52621;DHT22;38515;53.160;6.990;2023-10-31T15:34:21;10.10;62.20
52621;DHT22;38515;53.160;6.990;2023-10-31T15:36:47;10.10;67.20
52621;DHT22;38515;53.160;6.990;2023-10-31T15:39:12;10.10;72.00
52621;DHT22;38515;53.160;6.990;2023-10-31T15:41:39;10.00;71.60
52621;DHT22;38515;53.160;6.990;2023-10-31T15:44:05;10.10;78.40
52621;DHT22;38515;53.160;6.990;2023-10-31T15:46:31;10.10;85.60
52621;DHT22;38515;53.160;6.990;2023-10-31T15:48:56;10.10;90.80
52621;DHT22;38515;53.160;6.990;2023-10-31T15:51:23;10.10;93.30
52621;DHT22;38515;53.160;6.990;2023-10-31T15:53:48;10.00;94.40
52621;DHT22;38515;53.160;6.990;2023-10-31T15:56:14;10.00;95.70
52621;DHT22;38515;53.160;6.990;2023-10-31T15:58:40;9.90;97.30
52621;DHT22;38515;53.160;6.990;2023-10-31T16:01:06;10.00;99.20
52621;DHT22;38515;53.160;6.990;2023-10-31T16:03:33;10.00;99.90